Time;durP1;ratioP1;P1;durP2;ratioP2;P2;SDS_P1;SDS_P2;PMS_P1;PMS_P2;Temp;Humidity;BMP_temperature;BMP_pressure;BME280_temperature;BME280_humidity;BME280_pressure;Samples;Min_cycle;Max_cycle;Signal;HPM_P1;HPM_P2
2023/03/09 00:02:13;;;;;;;42.00;37.40;;;;;;;1.37;76.38;98289.08;113936;1232;22854;-79
2023/03/09 00:04:47;;;;;;;44.30;39.40;;;;;;;1.34;76.47;98285.92;113640;1232;22178;-79
2023/03/09 00:07:15;;;;;;;56.20;44.40;;;;;;;1.33;76.53;98288.89;113265;1239;21947;-79
2023/03/09 00:09:56;;;;;;;51.40;43.10;;;;;;;1.33;76.65;98291.09;112395;1244;21949;-79
2023/03/09 00:12:31;;;;;;;49.20;43.10;;;;;;;1.32;76.60;98293.89;112201;1244;23683;-78
2023/03/09 00:15:07;;;;;;;50.60;42.40;;;;;;;1.29;76.63;98289.54;112475;1244;23405;-79
2023/03/09 00:17:51;;;;;;;56.20;46.90;;;;;;;1.29;76.79;98291.08;112423;1244;21972;-79
2023/03/09 00:20:34;;;;;;;49.40;42.80;;;;;;;1.33;76.88;98291.45;112158;1244;23444;-80
2023/03/09 00:23:08;;;;;;;47.10;41.40;;;;;;;1.33;76.80;98292.81;112332;1244;21960;-80
2023/03/09 00:25:46;;;;;;;47.80;42.60;;;;;;;1.31;76.77;98296.98;112868;1238;21947;-78
2023/03/09 00:28:20;;;;;;;48.20;42.30;;;;;;;1.33;76.73;98300.20;113299;1233;22147;-80
2023/03/09 00:30:52;;;;;;;53.20;46.50;;;;;;;1.32;76.67;98304.67;113754;1233;22003;-79
2023/03/09 00:33:29;;;;;;;52.10;44.10;;;;;;;1.29;76.74;98307.86;113619;1232;21945;-80
2023/03/09 00:36:03;;;;;;;58.30;46.70;;;;;;;1.28;76.84;98306.70;113864;1233;23587;-80
2023/03/09 00:38:42;;;;;;;52.10;43.70;;;;;;;1.25;76.76;98301.67;113646;1233;21938;-81
2023/03/09 00:41:21;;;;;;;56.80;46.30;;;;;;;1.21;76.87;98296.48;113666;1233;21934;-79
2023/03/09 00:43:54;;;;;;;59.40;47.80;;;;;;;1.22;76.89;98296.45;113462;1233;22734;-78
2023/03/09 00:46:54;;;;;;;53.20;46.50;;;;;;;1.23;76.92;98298.79;112958;1239;23573;-80
2023/03/09 00:49:23;;;;;;;52.80;46.40;;;;;;;1.23;76.99;98302.42;112882;1239;21915;-79
2023/03/09 00:51:56;;;;;;;53.10;46.50;;;;;;;1.25;77.07;98304.76;112465;1243;21956;-79
2023/03/09 00:54:25;;;;;;;52.70;45.30;;;;;;;1.26;77.05;98305.23;112652;1243;23018;-79
2023/03/09 00:56:57;;;;;;;50.80;45.30;;;;;;;1.25;77.03;98303.02;112302;1243;21956;-79
2023/03/09 00:59:32;;;;;;;44.30;39.50;;;;;;;1.28;77.16;98299.00;112508;1243;23008;-80
2023/03/09 01:02:07;;;;;;;45.70;40.80;;;;;;;1.29;77.10;98293.13;112835;1242;21963;-80
2023/03/09 01:04:37;;;;;;;47.40;41.00;;;;;;;1.27;77.07;98283.95;111933;1244;22009;-80
2023/03/09 01:07:09;;;;;;;46.60;39.10;;;;;;;1.26;77.14;98281.74;112107;1245;24912;-79
2023/03/09 01:09:47;;;;;;;38.30;33.90;;;;;;;1.27;77.06;98282.08;112415;1239;21973;-79
2023/03/09 01:12:30;;;;;;;35.80;31.90;;;;;;;1.24;77.06;98277.18;112763;1239;23040;-80
2023/03/09 01:15:11;;;;;;;38.50;33.30;;;;;;;1.22;77.22;98274.34;112790;1239;21989;-80
2023/03/09 01:17:44;;;;;;;33.00;29.50;;;;;;;1.21;77.10;98276.95;112881;1239;23604;-80
2023/03/09 01:20:14;;;;;;;35.70;31.30;;;;;;;1.19;77.16;98276.34;112805;1239;21958;-79
2023/03/09 01:22:43;;;;;;;26.80;23.90;;;;;;;1.21;77.15;98274.90;112449;1239;21949;-80
2023/03/09 01:25:16;;;;;;;29.90;26.30;;;;;;;1.18;77.17;98279.79;112409;1244;23705;-80
2023/03/09 01:27:48;;;;;;;28.30;25.00;;;;;;;1.16;77.18;98276.94;112107;1244;23688;-79
2023/03/09 01:30:19;;;;;;;27.40;24.80;;;;;;;1.18;77.27;98268.65;112774;1238;21957;-80
2023/03/09 01:32:53;;;;;;;28.30;25.20;;;;;;;1.20;77.24;98261.56;112920;1238;21975;-81
2023/03/09 01:35:24;;;;;;;30.00;27.00;;;;;;;1.20;77.30;98258.30;113275;1238;21964;-81
2023/03/09 01:37:56;;;;;;;29.90;26.70;;;;;;;1.20;77.18;98260.70;112963;1238;23571;-81
2023/03/09 01:40:33;;;;;;;28.50;25.50;;;;;;;1.19;77.20;98262.27;113334;1238;24910;-79
2023/03/09 01:43:40;;;;;;;26.30;23.60;;;;;;;1.19;77.18;98257.16;113155;1234;23569;-79
2023/03/09 01:46:33;;;;;;;25.10;22.50;;;;;;;1.16;77.21;98260.83;113572;1233;21982;-81
2023/03/09 01:49:22;;;;;;;23.30;20.90;;;;;;;1.15;77.29;98261.21;113055;1241;23727;-81
2023/03/09 01:52:05;;;;;;;22.70;20.30;;;;;;;1.12;77.36;98253.78;112959;1241;22098;-79
2023/03/09 01:55:04;;;;;;;22.30;19.90;;;;;;;1.11;77.34;98249.02;113024;1241;21964;-79
2023/03/09 01:57:56;;;;;;;23.00;20.60;;;;;;;1.09;77.31;98239.81;112916;1241;23697;-79
2023/03/09 02:00:30;;;;;;;20.70;18.00;;;;;;;1.08;77.39;98232.83;112889;1241;21954;-79
2023/03/09 02:03:22;;;;;;;19.60;17.60;;;;;;;1.05;77.39;98228.14;112676;1241;22969;-80
2023/03/09 02:06:04;;;;;;;20.80;18.40;;;;;;;1.01;77.38;98227.40;112726;1241;21988;-79
2023/03/09 02:08:37;;;;;;;21.30;19.00;;;;;;;1.02;77.47;98226.52;113715;1232;21944;-79
2023/03/09 02:11:16;;;;;;;21.70;19.40;;;;;;;1.03;77.57;98228.55;113420;1233;21950;-78
2023/03/09 02:13:57;;;;;;;19.10;17.10;;;;;;;1.05;77.61;98236.36;113702;1233;21953;-80
2023/03/09 02:16:31;;;;;;;19.00;17.00;;;;;;;1.06;77.54;98232.05;113996;1232;21931;-80
2023/03/09 02:19:32;;;;;;;19.90;17.90;;;;;;;1.05;77.56;98233.10;113449;1232;22958;-79
2023/03/09 02:22:05;;;;;;;18.60;16.70;;;;;;;1.02;77.64;98230.95;113694;1232;21931;-78
2023/03/09 02:25:02;;;;;;;17.90;15.90;;;;;;;1.01;77.68;98239.55;112781;1239;21970;-78
2023/03/09 02:27:40;;;;;;;19.50;17.60;;;;;;;1.01;77.67;98246.60;113363;1237;21981;-78
2023/03/09 02:30:15;;;;;;;18.00;16.30;;;;;;;1.02;77.61;98252.38;112979;1239;23593;-78
2023/03/09 02:32:48;;;;;;;17.50;15.70;;;;;;;1.03;77.71;98257.31;112800;1239;23589;-80
2023/03/09 02:35:34;;;;;;;17.20;15.40;;;;;;;1.05;77.72;98260.84;112468;1239;23128;-79
2023/03/09 02:38:16;;;;;;;16.50;14.90;;;;;;;1.07;77.62;98254.63;113223;1238;24439;-80
2023/03/09 02:40:51;;;;;;;16.20;14.50;;;;;;;1.05;77.57;98255.20;112957;1232;21964;-80
2023/03/09 02:43:32;;;;;;;14.70;13.20;;;;;;;1.03;77.58;98254.90;113211;1234;23675;-79
2023/03/09 02:46:09;;;;;;;15.00;13.60;;;;;;;1.02;77.57;98261.80;113767;1232;22448;-81
2023/03/09 02:48:39;;;;;;;15.70;13.80;;;;;;;1.01;77.70;98264.75;113542;1232;21933;-79
2023/03/09 02:51:09;;;;;;;14.60;13.30;;;;;;;1.04;77.74;98258.66;113169;1232;24364;-80
2023/03/09 02:53:38;;;;;;;14.30;12.90;;;;;;;1.04;77.63;98256.41;112852;1239;21958;-79
2023/03/09 02:56:09;;;;;;;13.60;12.30;;;;;;;1.05;77.54;98256.38;112772;1241;23099;-83
2023/03/09 02:58:46;;;;;;;13.20;11.80;;;;;;;1.04;77.56;98249.75;113168;1239;21958;-79
2023/03/09 03:01:27;;;;;;;13.50;12.30;;;;;;;1.03;77.64;98245.66;112815;1233;23025;-80
2023/03/09 03:03:57;;;;;;;14.50;13.00;;;;;;;1.04;77.62;98247.70;109700;1239;4626535;-81
2023/03/09 03:06:26;;;;;;;12.40;11.30;;;;;;;1.03;77.55;98246.87;113115;1239;23674;-80
2023/03/09 03:08:57;;;;;;;14.40;13.00;;;;;;;1.01;77.49;98252.40;112056;1246;22001;-81
2023/03/09 03:11:28;;;;;;;13.00;11.70;;;;;;;1.01;77.53;98252.76;111914;1245;22011;-80
2023/03/09 03:14:00;;;;;;;14.00;12.70;;;;;;;1.01;77.49;98255.16;112315;1245;23688;-79
2023/03/09 03:16:30;;;;;;;13.80;12.40;;;;;;;1.02;77.39;98260.80;112071;1245;21995;-79
2023/03/09 03:19:00;;;;;;;13.00;11.80;;;;;;;1.01;77.39;98265.61;112122;1245;23754;-79
2023/03/09 03:21:31;;;;;;;13.60;11.80;;;;;;;0.99;77.36;98269.62;112129;1245;24196;-79
2023/03/09 03:24:01;;;;;;;13.60;12.30;;;;;;;0.96;77.40;98268.00;111933;1245;23024;-78
2023/03/09 03:26:32;;;;;;;13.90;12.50;;;;;;;0.94;77.35;98273.18;111475;1249;21986;-79
2023/03/09 03:29:05;;;;;;;13.70;12.30;;;;;;;0.94;77.43;98278.16;111573;1247;21990;-79
2023/03/09 03:31:33;;;;;;;13.60;12.40;;;;;;;0.96;77.49;98278.78;111473;1253;21990;-79
2023/03/09 03:34:03;;;;;;;14.60;12.20;;;;;;;0.97;77.33;98271.20;111986;1247;21956;-78
2023/03/09 03:36:39;;;;;;;13.50;12.20;;;;;;;0.97;77.34;98257.67;111766;1247;23035;-78
2023/03/09 03:39:13;;;;;;;12.60;11.30;;;;;;;0.97;77.26;98257.53;111635;1249;22131;-77
2023/03/09 03:41:52;;;;;;;12.40;11.20;;;;;;;0.95;77.27;98259.48;111373;1252;21973;-79
2023/03/09 03:44:27;;;;;;;12.70;11.10;;;;;;;0.92;77.30;98256.14;111635;1246;21989;-78
2023/03/09 03:47:00;;;;;;;12.60;11.20;;;;;;;0.91;77.33;98243.31;112110;1246;21971;-77
2023/03/09 03:49:30;;;;;;;11.90;10.80;;;;;;;0.88;77.17;98245.30;112306;1238;21956;-78
2023/03/09 03:52:10;;;;;;;11.30;10.20;;;;;;;0.84;77.18;98242.02;112474;1238;21982;-78
2023/03/09 03:54:43;;;;;;;12.50;11.30;;;;;;;0.81;77.18;98244.15;112566;1238;23700;-78
2023/03/09 03:57:15;;;;;;;12.20;11.00;;;;;;;0.77;77.14;98243.58;113135;1232;21945;-79
2023/03/09 03:59:45;;;;;;;14.70;13.20;;;;;;;0.76;77.22;98248.94;113638;1233;22956;-80
2023/03/09 04:02:15;;;;;;;14.30;12.90;;;;;;;0.76;77.19;98251.83;113971;1233;22091;-80
2023/03/09 04:04:49;;;;;;;16.20;14.60;;;;;;;0.74;77.14;98255.84;113033;1239;21938;-80
2023/03/09 04:07:31;;;;;;;15.50;13.90;;;;;;;0.73;77.30;98264.41;112995;1239;21971;-79
2023/03/09 04:10:00;;;;;;;16.80;14.80;;;;;;;0.76;77.35;98265.03;112827;1239;22877;-79
2023/03/09 04:12:33;;;;;;;17.60;15.80;;;;;;;0.76;77.31;98260.39;112827;1240;21934;-80
2023/03/09 04:15:03;;;;;;;15.60;14.00;;;;;;;0.74;77.21;98259.41;112985;1239;21968;-79
2023/03/09 04:17:32;;;;;;;16.60;15.10;;;;;;;0.73;77.26;98255.36;113138;1239;21969;-79
2023/03/09 04:20:04;;;;;;;17.10;15.50;;;;;;;0.73;77.22;98255.70;112841;1239;21953;-79
2023/03/09 04:22:36;;;;;;;17.70;16.00;;;;;;;0.72;77.24;98253.84;112841;1234;23570;-79
2023/03/09 04:25:06;;;;;;;18.60;16.40;;;;;;;0.73;77.31;98252.96;113340;1234;22327;-80
2023/03/09 04:27:37;;;;;;;19.60;17.70;;;;;;;0.71;77.21;98247.54;113497;1233;21952;-78
2023/03/09 04:30:20;;;;;;;21.20;19.10;;;;;;;0.70;77.30;98246.73;113441;1233;23727;-78
2023/03/09 04:32:57;;;;;;;20.40;18.30;;;;;;;0.71;77.45;98249.77;113505;1233;23098;-79
2023/03/09 04:35:47;;;;;;;20.40;18.50;;;;;;;0.69;77.31;98245.38;112865;1239;23681;-78
2023/03/09 04:38:22;;;;;;;19.60;17.70;;;;;;;0.67;77.30;98247.49;113098;1239;22249;-80
2023/03/09 04:41:01;;;;;;;20.00;18.10;;;;;;;0.66;77.35;98249.75;112772;1239;21993;-79
2023/03/09 04:43:33;;;;;;;21.00;18.90;;;;;;;0.65;77.33;98254.06;113103;1239;21971;-81
2023/03/09 04:46:02;;;;;;;21.10;19.00;;;;;;;0.65;77.39;98252.88;113244;1239;24286;-79
2023/03/09 04:48:35;;;;;;;21.60;19.50;;;;;;;0.63;77.49;98254.13;112957;1239;21949;-79
2023/03/09 04:51:11;;;;;;;21.40;19.30;;;;;;;0.61;77.43;98251.63;112773;1239;23799;-81
2023/03/09 04:53:43;;;;;;;21.70;19.60;;;;;;;0.58;77.42;98248.80;113243;1234;23021;-79
2023/03/09 04:56:21;;;;;;;22.80;20.50;;;;;;;0.58;77.43;98252.55;113246;1238;21967;-79
2023/03/09 04:59:00;;;;;;;23.80;21.50;;;;;;;0.59;77.58;98247.77;113284;1237;23026;-81
2023/03/09 05:01:31;;;;;;;23.60;20.70;;;;;;;0.60;77.54;98246.34;113416;1237;23388;-80
2023/03/09 05:04:11;;;;;;;24.10;21.80;;;;;;;0.61;77.52;98248.05;113206;1237;22827;-80
2023/03/09 05:06:50;;;;;;;21.90;19.80;;;;;;;0.57;77.51;98246.60;113662;1237;23606;-81
2023/03/09 05:09:34;;;;;;;25.10;22.70;;;;;;;0.55;77.58;98244.44;112408;1243;24314;-82
2023/03/09 05:12:09;;;;;;;25.20;22.70;;;;;;;0.55;77.63;98236.73;112194;1244;23195;-80
2023/03/09 05:14:45;;;;;;;24.10;21.60;;;;;;;0.55;77.56;98230.73;112455;1241;23053;-82
2023/03/09 05:17:20;;;;;;;23.00;20.70;;;;;;;0.54;77.61;98221.73;112905;1241;23655;-83
2023/03/09 05:20:13;;;;;;;25.40;22.70;;;;;;;0.52;77.62;98227.41;112837;1241;24275;-82
2023/03/09 05:22:52;;;;;;;24.70;22.30;;;;;;;0.51;77.66;98237.20;112608;1241;21959;-82
2023/03/09 05:25:26;;;;;;;24.60;22.20;;;;;;;0.51;77.67;98235.83;112938;1240;21962;-81
2023/03/09 05:27:58;;;;;;;23.80;21.40;;;;;;;0.53;77.71;98236.13;112762;1239;21957;-80
2023/03/09 05:30:40;;;;;;;25.10;22.50;;;;;;;0.52;77.74;98231.88;112906;1239;21978;-82
2023/03/09 05:33:26;;;;;;;24.60;22.30;;;;;;;0.52;77.81;98228.45;113021;1239;21954;-82
2023/03/09 05:36:03;;;;;;;24.20;21.90;;;;;;;0.49;77.79;98227.84;112913;1239;21957;-83
2023/03/09 05:38:32;;;;;;;23.50;21.20;;;;;;;0.48;77.80;98230.46;112955;1239;23010;-83
2023/03/09 05:41:11;;;;;;;22.90;20.70;;;;;;;0.48;77.87;98232.34;112831;1239;21967;-81
2023/03/09 05:43:49;;;;;;;22.90;20.80;;;;;;;0.49;77.92;98237.98;112808;1239;22016;-82
2023/03/09 05:46:30;;;;;;;23.20;20.90;;;;;;;0.48;77.97;98235.77;112976;1238;22106;-82
2023/03/09 05:49:18;;;;;;;23.60;21.30;;;;;;;0.48;78.09;98232.33;113099;1239;21962;-80
2023/03/09 05:51:58;;;;;;;24.30;22.00;;;;;;;0.50;78.12;98230.06;113167;1233;21951;-81
2023/03/09 05:54:44;;;;;;;24.50;22.00;;;;;;;0.50;78.10;98238.95;113716;1233;21919;-81
2023/03/09 05:57:21;;;;;;;25.80;23.20;;;;;;;0.50;78.03;98242.88;113532;1234;21968;-81
2023/03/09 06:00:00;;;;;;;26.50;23.90;;;;;;;0.47;78.03;98236.29;113938;1232;22083;-81
2023/03/09 06:02:46;;;;;;;23.60;21.30;;;;;;;0.45;78.08;98232.59;113952;1233;21967;-80
2023/03/09 06:05:27;;;;;;;23.00;20.90;;;;;;;0.48;78.12;98239.70;113601;1232;21967;-81
2023/03/09 06:08:16;;;;;;;24.30;21.60;;;;;;;0.49;78.13;98238.13;113760;1233;23011;-81
2023/03/09 06:11:03;;;;;;;24.20;21.60;;;;;;;0.49;78.11;98240.34;113842;1232;21939;-80
2023/03/09 06:13:38;;;;;;;25.70;22.90;;;;;;;0.50;78.14;98238.61;113737;1233;21989;-81
2023/03/09 06:16:16;;;;;;;25.50;22.30;;;;;;;0.52;78.19;98230.66;113689;1233;21951;-81
2023/03/09 06:18:56;;;;;;;25.20;22.50;;;;;;;0.55;78.15;98235.37;113556;1233;21974;-82
2023/03/09 06:21:36;;;;;;;25.30;22.70;;;;;;;0.56;78.11;98233.11;113731;1233;22392;-81
2023/03/09 06:24:15;;;;;;;25.50;22.80;;;;;;;0.56;78.03;98229.35;112567;1238;21976;-82
2023/03/09 06:26:59;;;;;;;26.80;22.20;;;;;;;0.58;78.18;98237.15;112820;1239;21967;-81
2023/03/09 06:29:47;;;;;;;31.00;26.90;;;;;;;0.62;78.24;98234.66;112532;1239;21977;-83
2023/03/09 06:32:38;;;;;;;31.00;25.10;;;;;;;0.63;78.24;98234.09;112961;1239;23577;-80
2023/03/09 06:35:18;;;;;;;25.80;21.50;;;;;;;0.66;78.16;98237.09;113231;1239;21947;-81
2023/03/09 06:37:54;;;;;;;25.40;22.20;;;;;;;0.69;78.15;98238.03;112437;1244;21984;-82
2023/03/09 06:40:39;;;;;;;23.00;20.70;;;;;;;0.66;78.01;98243.76;111787;1250;23031;-81
2023/03/09 06:43:21;;;;;;;28.20;22.90;;;;;;;0.67;78.00;98244.57;111885;1250;21965;-83
2023/03/09 06:45:53;;;;;;;26.40;23.50;;;;;;;0.67;77.91;98247.64;112027;1250;23588;-79
2023/03/09 06:48:28;;;;;;;26.10;23.30;;;;;;;0.68;77.91;98248.15;111816;1250;23053;-80
2023/03/09 06:50:57;;;;;;;23.30;20.50;;;;;;;0.71;78.02;98250.63;111190;1254;21980;-81
2023/03/09 06:53:28;;;;;;;22.40;20.00;;;;;;;0.71;77.96;98249.25;111442;1254;23605;-82
2023/03/09 06:56:10;;;;;;;26.30;22.20;;;;;;;0.68;77.73;98253.29;111670;1251;21967;-83
2023/03/09 06:58:42;;;;;;;24.50;21.80;;;;;;;0.67;77.78;98253.50;111726;1251;22384;-82
2023/03/09 07:01:22;;;;;;;28.10;23.60;;;;;;;0.69;77.88;98249.65;112167;1245;23972;-82
2023/03/09 07:04:03;;;;;;;31.00;23.30;;;;;;;0.70;77.96;98250.98;112367;1245;22287;-82
2023/03/09 07:06:35;;;;;;;29.90;24.60;;;;;;;0.71;77.88;98249.77;113063;1239;23577;-80
2023/03/09 07:09:11;;;;;;;24.90;22.10;;;;;;;0.72;77.96;98248.52;113393;1232;23009;-80
2023/03/09 07:11:40;;;;;;;24.30;21.00;;;;;;;0.77;77.98;98246.48;113614;1232;21935;-79
2023/03/09 07:14:09;;;;;;;31.90;23.10;;;;;;;0.80;77.87;98241.79;112858;1239;23570;-80
2023/03/09 07:16:40;;;;;;;24.70;22.10;;;;;;;0.81;77.88;98242.09;113231;1235;23130;-81
2023/03/09 07:19:11;;;;;;;30.30;24.00;;;;;;;0.84;77.83;98245.09;113106;1239;22975;-81
2023/03/09 07:21:44;;;;;;;27.90;24.30;;;;;;;0.85;77.82;98243.34;112886;1239;21942;-78
2023/03/09 07:24:14;;;;;;;29.70;25.00;;;;;;;0.86;77.73;98239.39;112422;1245;21991;-79
2023/03/09 07:26:46;;;;;;;30.40;26.10;;;;;;;0.82;77.68;98240.34;112263;1245;21959;-80
2023/03/09 07:29:15;;;;;;;26.80;23.10;;;;;;;0.81;77.68;98246.70;111920;1245;21990;-79
2023/03/09 07:31:44;;;;;;;25.00;22.40;;;;;;;0.78;77.70;98241.52;111786;1249;22595;-80
2023/03/09 07:34:14;;;;;;;27.40;21.60;;;;;;;0.79;77.75;98243.34;111463;1251;22499;-79
2023/03/09 07:36:47;;;;;;;26.40;23.50;;;;;;;0.81;77.79;98244.02;111480;1250;21961;-78
2023/03/09 07:39:16;;;;;;;30.00;25.60;;;;;;;0.83;77.84;98243.75;111822;1245;24539;-78
2023/03/09 07:41:48;;;;;;;29.20;25.50;;;;;;;0.85;77.93;98241.79;111854;1245;23835;-79
2023/03/09 07:44:18;;;;;;;29.40;26.10;;;;;;;0.89;77.96;98239.95;111891;1245;23002;-78
2023/03/09 07:46:47;;;;;;;26.90;24.00;;;;;;;0.96;78.07;98241.27;111891;1245;23580;-79
2023/03/09 07:49:19;;;;;;;27.20;24.00;;;;;;;0.99;77.95;98238.08;112620;1233;21967;-80
2023/03/09 07:51:51;;;;;;;31.20;27.30;;;;;;;1.04;78.08;98239.45;113489;1233;22715;-79
2023/03/09 07:54:26;;;;;;;33.30;27.20;;;;;;;1.12;78.19;98235.62;113538;1233;21956;-80
2023/03/09 07:57:02;;;;;;;27.70;24.40;;;;;;;1.22;78.06;98238.04;113920;1233;22385;-80
2023/03/09 07:59:31;;;;;;;25.40;22.70;;;;;;;1.27;77.88;98235.98;113459;1234;22969;-80
2023/03/09 08:02:32;;;;;;;32.50;27.80;;;;;;;1.29;77.71;98236.76;113688;1233;22025;-81
2023/03/09 08:05:18;;;;;;;27.10;24.20;;;;;;;1.29;77.69;98233.48;113633;1233;21937;-80
2023/03/09 08:07:50;;;;;;;29.90;25.80;;;;;;;1.32;77.69;98239.05;113479;1233;22689;-79
2023/03/09 08:10:19;;;;;;;;;;;;;;;1.37;77.65;98236.48;113649;1233;21942;-81
2023/03/09 08:12:51;;;;;;;26.80;23.80;;;;;;;1.33;77.47;98240.39;113568;1233;21974;-79
2023/03/09 08:15:25;;;;;;;27.60;24.70;;;;;;;1.28;77.31;98243.11;113348;1233;21930;-81
2023/03/09 08:18:12;;;;;;;30.30;24.20;;;;;;;1.24;77.30;98243.11;113494;1233;22164;-82
2023/03/09 08:20:54;;;;;;;27.60;24.10;;;;;;;1.26;77.35;98249.72;113800;1233;21974;-80
2023/03/09 08:23:39;;;;;;;34.60;26.00;;;;;;;1.26;77.15;98257.06;113699;1233;23586;-81
2023/03/09 08:26:19;;;;;;;32.00;25.70;;;;;;;1.23;77.14;98256.31;113587;1233;21989;-80
2023/03/09 08:28:54;;;;;;;27.00;24.20;;;;;;;1.23;77.06;98260.11;113367;1238;21950;-79
2023/03/09 08:31:29;;;;;;;31.70;28.10;;;;;;;1.21;77.04;98262.55;112599;1242;21965;-80
2023/03/09 08:34:14;;;;;;;28.60;25.30;;;;;;;1.21;76.96;98267.86;112284;1242;21964;-82
2023/03/09 08:36:43;;;;;;;26.60;23.90;;;;;;;1.21;77.02;98273.16;112451;1242;21946;-81
2023/03/09 08:39:20;;;;;;;26.10;23.30;;;;;;;1.20;77.04;98276.30;112094;1247;21945;-81
2023/03/09 08:41:49;;;;;;;24.60;22.10;;;;;;;1.18;76.96;98279.77;111851;1247;22647;-83
2023/03/09 08:44:21;;;;;;;24.40;22.00;;;;;;;1.17;76.92;98280.82;111889;1247;22626;-83
2023/03/09 08:46:59;;;;;;;27.20;24.20;;;;;;;1.14;76.86;98283.48;112219;1243;21988;-86
2023/03/09 08:49:41;;;;;;;27.70;24.80;;;;;;;1.11;76.82;98288.39;112926;1237;22098;-81
2023/03/09 08:52:13;;;;;;;30.90;25.70;;;;;;;1.15;76.92;98291.36;112955;1238;21908;-81
2023/03/09 08:54:51;;;;;;;26.90;24.00;;;;;;;1.16;76.90;98296.98;113009;1238;22015;-79
2023/03/09 08:57:23;;;;;;;25.60;23.00;;;;;;;1.17;76.96;98302.60;113307;1233;21955;-79
2023/03/09 08:59:56;;;;;;;27.40;24.00;;;;;;;1.15;76.77;98306.42;112955;1239;23594;-80
2023/03/09 09:02:34;;;;;;;27.30;24.40;;;;;;;1.12;76.72;98310.63;112915;1239;23680;-80
2023/03/09 09:05:16;;;;;;;22.80;20.50;;;;;;;1.08;76.62;98311.45;112861;1239;21968;-80
2023/03/09 09:07:46;;;;;;;28.50;22.00;;;;;;;1.05;76.74;98313.94;113189;1239;21952;-81
2023/03/09 09:10:19;;;;;;;24.80;22.10;;;;;;;1.04;76.75;98315.55;112882;1239;21976;-81
2023/03/09 09:13:03;;;;;;;23.50;21.10;;;;;;;1.01;76.79;98317.17;112926;1239;23672;-80
2023/03/09 09:15:33;;;;;;;23.80;21.40;;;;;;;1.02;76.86;98322.45;112906;1239;21947;-82
2023/03/09 09:18:08;;;;;;;23.10;20.70;;;;;;;1.02;76.86;98326.02;112929;1233;22161;-81
2023/03/09 09:20:38;;;;;;;24.30;21.80;;;;;;;0.98;76.87;98328.55;113705;1233;21965;-81
2023/03/09 09:23:08;;;;;;;24.20;21.70;;;;;;;0.98;76.90;98330.98;113289;1237;21958;-80
2023/03/09 09:25:41;;;;;;;27.10;24.30;;;;;;;0.97;76.84;98334.09;113159;1238;23621;-81
2023/03/09 09:28:17;;;;;;;26.60;23.80;;;;;;;0.97;76.98;98338.69;112873;1238;21974;-80
2023/03/09 09:30:58;;;;;;;27.90;25.10;;;;;;;0.98;77.03;98341.56;113483;1238;23711;-81
2023/03/09 09:33:32;;;;;;;29.70;26.70;;;;;;;1.00;77.11;98339.98;113096;1238;22021;-79
2023/03/09 09:36:34;;;;;;;31.20;28.30;;;;;;;0.98;77.03;98343.62;112879;1238;22953;-79
2023/03/09 09:39:07;;;;;;;34.70;31.30;;;;;;;0.98;77.12;98344.66;113526;1238;23619;-78
2023/03/09 09:41:51;;;;;;;34.40;31.00;;;;;;;0.99;77.09;98345.84;113154;1233;22385;-76
2023/03/09 09:44:48;;;;;;;35.50;32.00;;;;;;;1.04;77.33;98347.56;113464;1233;21941;-77
2023/03/09 09:47:25;;;;;;;33.40;30.00;;;;;;;1.07;77.40;98351.57;112996;1238;21954;-76
2023/03/09 09:50:01;;;;;;;28.10;25.50;;;;;;;1.10;77.60;98356.77;112802;1234;23091;-76
2023/03/09 09:53:24;;;;;;;30.90;27.90;;;;;;;1.09;77.36;98359.39;112504;1239;23673;-77
2023/03/09 09:55:53;;;;;;;26.50;23.80;;;;;;;1.05;77.39;98364.48;112225;1246;21961;-79
2023/03/09 09:58:31;;;;;;;25.80;23.40;;;;;;;1.03;77.11;98367.98;112221;1246;23694;-79
2023/03/09 10:01:09;;;;;;;25.20;22.70;;;;;;;0.97;77.08;98372.08;112194;1246;21967;-78
2023/03/09 10:03:45;;;;;;;27.80;25.10;;;;;;;0.96;77.28;98376.08;112034;1246;22037;-77
2023/03/09 10:06:25;;;;;;;25.70;23.30;;;;;;;0.96;77.39;98383.06;112425;1241;21951;-77
2023/03/09 10:09:26;;;;;;;27.00;24.40;;;;;;;0.97;77.41;98385.95;112464;1241;22884;-78
2023/03/09 10:12:07;;;;;;;25.50;22.80;;;;;;;0.98;77.42;98391.59;112614;1241;21965;-77
2023/03/09 10:15:11;;;;;;;24.90;22.60;;;;;;;0.98;77.39;98402.90;112419;1241;21977;-77
2023/03/09 10:18:22;;;;;;;28.40;25.70;;;;;;;0.89;77.38;98411.55;112504;1241;22968;-77
2023/03/09 10:20:57;;;;;;;28.30;25.30;;;;;;;0.85;77.48;98416.63;112806;1242;22977;-78
2023/03/09 10:23:45;;;;;;;28.30;25.50;;;;;;;0.88;77.64;98421.16;112432;1242;22943;-76
2023/03/09 10:26:53;;;;;;;31.40;28.00;;;;;;;0.93;77.68;98427.71;112400;1242;23688;-80
2023/03/09 10:30:02;;;;;;;33.60;29.60;;;;;;;0.97;77.75;98432.70;112583;1242;22143;-78
2023/03/09 10:32:43;;;;;;;31.60;27.90;;;;;;;1.04;77.90;98441.05;112549;1238;21937;-76
2023/03/09 10:35:45;;;;;;;34.50;28.30;;;;;;;1.11;77.80;98443.95;112647;1242;23675;-78
2023/03/09 10:38:23;;;;;;;31.00;27.30;;;;;;;1.12;77.78;98448.39;112470;1242;23021;-78
2023/03/09 10:41:07;;;;;;;32.30;28.90;;;;;;;1.13;77.68;98448.87;112538;1242;23578;-77
2023/03/09 10:43:37;;;;;;;34.40;29.80;;;;;;;1.13;77.62;98447.31;112332;1242;23017;-78
2023/03/09 10:46:53;;;;;;;37.20;30.40;;;;;;;1.14;77.67;98450.54;112775;1242;21905;-78
2023/03/09 10:49:29;;;;;;;30.80;27.30;;;;;;;1.11;77.50;98460.23;112410;1242;21948;-78
2023/03/09 10:52:18;;;;;;;30.70;26.00;;;;;;;1.09;77.47;98470.73;112241;1247;22013;-77
2023/03/09 10:54:53;;;;;;;38.70;30.50;;;;;;;1.06;77.41;98468.79;111839;1249;21988;-76
2023/03/09 10:57:33;;;;;;;33.90;29.40;;;;;;;1.02;77.42;98478.66;112022;1246;22634;-77
2023/03/09 11:01:04;;;;;;;39.10;31.30;;;;;;;1.01;77.51;98496.52;112387;1246;22064;-77
2023/03/09 11:03:48;;;;;;;37.90;30.50;;;;;;;0.96;77.43;98514.28;112462;1251;21995;-77
2023/03/09 11:06:52;;;;;;;35.10;29.70;;;;;;;0.93;77.48;98518.65;112286;1251;22273;-77
2023/03/09 11:09:53;;;;;;;39.80;34.20;;;;;;;0.95;77.77;98520.48;111972;1245;21975;-77
2023/03/09 11:12:39;;;;;;;36.60;31.20;;;;;;;1.03;78.02;98525.90;112634;1239;21949;-77
2023/03/09 11:15:37;;;;;;;28.30;25.30;;;;;;;1.08;77.86;98527.14;113081;1239;22429;-78
2023/03/09 11:18:29;;;;;;;32.30;28.80;;;;;;;1.08;77.84;98526.81;113604;1239;22068;-76
2023/03/09 11:21:09;;;;;;;37.90;29.40;;;;;;;1.15;77.97;98527.61;113304;1239;21970;-77
2023/03/09 11:24:02;;;;;;;29.10;26.10;;;;;;;1.21;77.94;98521.80;112844;1244;21966;-77
2023/03/09 11:26:57;;;;;;;25.30;22.90;;;;;;;1.24;77.94;98520.00;111826;1248;21939;-78
2023/03/09 11:29:53;;;;;;;28.70;26.10;;;;;;;1.25;77.95;98523.73;111727;1252;24334;-76
2023/03/09 11:32:26;;;;;;;26.70;24.10;;;;;;;1.31;78.00;98525.28;111649;1252;21982;-77
2023/03/09 11:34:59;;;;;;;22.90;20.50;;;;;;;1.35;77.89;98526.86;111737;1252;23638;-77
2023/03/09 11:38:03;;;;;;;22.90;19.70;;;;;;;1.44;78.20;98534.84;111037;1259;21970;-77
2023/03/09 11:41:07;;;;;;;26.70;24.10;;;;;;;1.47;77.95;98533.89;111482;1251;22008;-76
2023/03/09 11:43:46;;;;;;;26.10;23.00;;;;;;;1.49;77.96;98534.67;111606;1254;23072;-77
2023/03/09 11:46:25;;;;;;;22.70;20.40;;;;;;;1.54;77.94;98535.90;111858;1250;21924;-77
2023/03/09 11:49:23;;;;;;;20.90;18.90;;;;;;;1.60;77.86;98539.67;112072;1250;22446;-77
2023/03/09 11:52:07;;;;;;;21.20;19.00;;;;;;;1.63;77.60;98545.42;111425;1254;21962;-76
2023/03/09 11:54:50;;;;;;;25.60;19.90;;;;;;;1.60;77.44;98557.17;111439;1248;23047;-76
2023/03/09 11:57:23;;;;;;;23.70;21.50;;;;;;;1.52;77.12;98563.21;111539;1252;24740;-77
2023/03/09 12:00:11;;;;;;;20.80;18.60;;;;;;;1.49;77.10;98568.10;111552;1252;21959;-78
2023/03/09 12:03:28;;;;;;;21.40;19.20;;;;;;;1.44;77.14;98562.95;111822;1247;22071;-78
2023/03/09 12:06:25;;;;;;;21.00;18.80;;;;;;;1.43;77.23;98567.63;111906;1244;21943;-77
2023/03/09 12:09:02;;;;;;;20.80;18.20;;;;;;;1.42;77.08;98573.64;112510;1243;21971;-77
2023/03/09 12:11:51;;;;;;;19.90;18.00;;;;;;;1.39;76.93;98579.91;112368;1243;21950;-78